createdAt,value
2018-07-02T00:00:05.000Z,26
2018-07-02T00:02:05.000Z,25.9
2018-07-02T00:03:05.000Z,25.9
2018-07-02T00:04:05.000Z,25.9
2018-07-02T00:05:05.000Z,25.9
2018-07-02T00:06:05.000Z,26
2018-07-02T00:07:05.000Z,26
2018-07-02T00:09:05.000Z,26
2018-07-02T00:10:05.000Z,26
2018-07-02T00:11:05.000Z,26
2018-07-02T00:12:49.000Z,26.1
2018-07-02T00:14:05.000Z,26
2018-07-02T00:15:05.000Z,26
2018-07-02T00:16:05.000Z,26
2018-07-02T00:18:05.000Z,25.9
2018-07-02T00:19:05.000Z,25.9
2018-07-02T00:20:05.000Z,26
2018-07-02T00:21:49.000Z,26
2018-07-02T00:23:05.000Z,26
2018-07-02T00:24:05.000Z,25.9
2018-07-02T00:26:05.000Z,25.9
2018-07-02T00:28:05.000Z,25.7
2018-07-02T00:29:05.000Z,25.7
2018-07-02T00:31:05.000Z,25.6
2018-07-02T00:33:05.000Z,25.6
2018-07-02T00:35:05.000Z,25.5
2018-07-02T00:38:50.000Z,25
2018-07-02T00:39:50.000Z,25
2018-07-02T00:41:35.000Z,25.1
2018-07-02T00:42:50.000Z,25.1
2018-07-02T00:44:50.000Z,25.1
2018-07-02T00:45:50.000Z,25.1
2018-07-02T00:46:50.000Z,25.2
2018-07-02T00:47:50.000Z,25.3
2018-07-02T00:49:50.000Z,25.3
2018-07-02T00:50:50.000Z,25.3
2018-07-02T00:52:50.000Z,25.2
2018-07-02T00:53:50.000Z,25.2
2018-07-02T00:54:50.000Z,25.2
2018-07-02T00:55:50.000Z,25.3
2018-07-02T00:57:50.000Z,25.3
2018-07-02T00:58:50.000Z,25.3
2018-07-02T01:00:50.000Z,25.3
2018-07-02T01:01:50.000Z,25.3
2018-07-02T01:03:35.000Z,25.4
2018-07-02T01:04:50.000Z,25.4
2018-07-02T01:06:35.000Z,25.4
2018-07-02T01:07:50.000Z,25.3
2018-07-02T01:09:50.000Z,25.3
2018-07-02T01:10:50.000Z,25.2
2018-07-02T01:11:50.000Z,25.3
2018-07-02T01:13:50.000Z,25.3
2018-07-02T01:15:50.000Z,25.3
2018-07-02T01:17:50.000Z,25.3
2018-07-02T01:19:50.000Z,25.2
2018-07-02T01:20:50.000Z,25.2
2018-07-02T01:22:50.000Z,25.1
2018-07-02T01:23:50.000Z,25.1
2018-07-02T01:25:50.000Z,25.1
2018-07-02T01:27:50.000Z,25
2018-07-02T01:29:35.000Z,25
2018-07-02T01:30:50.000Z,24.9
2018-07-02T01:32:50.000Z,24.7
2018-07-02T01:33:50.000Z,24.7
2018-07-02T01:34:50.000Z,24.7
2018-07-02T01:36:50.000Z,24.7
2018-07-02T01:37:50.000Z,24.7
2018-07-02T01:39:50.000Z,24.7
2018-07-02T01:40:50.000Z,24.7
2018-07-02T01:42:50.000Z,24.8
2018-07-02T01:44:50.000Z,24.8
2018-07-02T01:45:50.000Z,24.8
2018-07-02T01:47:50.000Z,24.8
2018-07-02T01:48:50.000Z,24.8
2018-07-02T01:50:50.000Z,24.8
2018-07-02T01:51:50.000Z,24.8
2018-07-02T01:53:50.000Z,24.9
2018-07-02T01:54:50.000Z,24.9
2018-07-02T01:55:50.000Z,25
2018-07-02T01:56:50.000Z,25
2018-07-02T01:57:50.000Z,25
2018-07-02T01:59:50.000Z,25.1
2018-07-02T02:01:50.000Z,25
2018-07-02T02:03:35.000Z,24.9
2018-07-02T02:04:50.000Z,24.9
2018-07-02T02:05:50.000Z,24.9
2018-07-02T02:06:50.000Z,24.9
2018-07-02T02:08:50.000Z,25
2018-07-02T02:09:50.000Z,25
2018-07-02T02:11:50.000Z,25
2018-07-02T02:13:50.000Z,24.8
2018-07-02T02:14:50.000Z,24.8
2018-07-02T02:16:50.000Z,24.6
2018-07-02T02:18:50.000Z,24.5
2018-07-02T02:20:50.000Z,24.4
2018-07-02T02:21:50.000Z,24.3
2018-07-02T02:23:50.000Z,24.3
2018-07-02T02:24:50.000Z,24.3
2018-07-02T02:25:50.000Z,24.3
2018-07-02T02:27:50.000Z,24.3
2018-07-02T02:29:50.000Z,24.3
2018-07-02T02:31:50.000Z,24.2
2018-07-02T02:32:50.000Z,24.2
2018-07-02T02:33:50.000Z,24.3
2018-07-02T02:34:50.000Z,24.3
2018-07-02T02:35:50.000Z,24.3
2018-07-02T02:37:50.000Z,24.3
2018-07-02T02:39:35.000Z,24.3
2018-07-02T02:40:50.000Z,24.2
2018-07-02T02:42:50.000Z,24.2
2018-07-02T02:44:50.000Z,24.2
2018-07-02T02:45:50.000Z,24.2
2018-07-02T02:46:50.000Z,24.3
2018-07-02T02:48:50.000Z,24.4
2018-07-02T02:49:50.000Z,24.4
2018-07-02T02:51:50.000Z,24.4
2018-07-02T02:52:50.000Z,24.3
2018-07-02T02:54:50.000Z,24.4
2018-07-02T02:56:50.000Z,24.3
2018-07-02T02:57:50.000Z,24.3
2018-07-02T02:59:50.000Z,24.3
2018-07-02T03:01:50.000Z,24.2
2018-07-02T03:02:50.000Z,24.2
2018-07-02T03:04:50.000Z,24.3
2018-07-02T03:06:50.000Z,24.2
2018-07-02T03:08:50.000Z,24.1
2018-07-02T03:09:50.000Z,24.1
2018-07-02T03:11:50.000Z,24
2018-07-02T03:12:50.000Z,24
2018-07-02T03:13:50.000Z,24
2018-07-02T03:14:50.000Z,24
2018-07-02T03:15:50.000Z,24.1
2018-07-02T03:16:50.000Z,24.1
2018-07-02T03:17:50.000Z,24.1
2018-07-02T03:19:50.000Z,24.1
2018-07-02T03:20:50.000Z,24.1
2018-07-02T03:22:50.000Z,24.1
2018-07-02T03:24:50.000Z,24
2018-07-02T03:26:50.000Z,23.8
2018-07-02T03:27:50.000Z,23.8
2018-07-02T03:29:50.000Z,23.8
2018-07-02T03:31:50.000Z,23.8
2018-07-02T03:32:50.000Z,23.9
2018-07-02T03:34:50.000Z,23.9
2018-07-02T03:35:50.000Z,23.9
2018-07-02T03:37:50.000Z,23.9
2018-07-02T03:39:35.000Z,23.9
2018-07-02T03:40:50.000Z,23.9
2018-07-02T03:41:50.000Z,24
2018-07-02T03:42:50.000Z,24
2018-07-02T03:43:50.000Z,24.2
2018-07-02T03:45:50.000Z,24.3
2018-07-02T03:46:50.000Z,24.3
2018-07-02T03:48:50.000Z,24.4
2018-07-02T03:49:50.000Z,24.4
2018-07-02T03:51:50.000Z,24.4
2018-07-02T03:53:50.000Z,24.4
2018-07-02T03:54:50.000Z,24.4
2018-07-02T03:56:50.000Z,24.3
2018-07-02T03:57:50.000Z,24.3
2018-07-02T03:58:50.000Z,24.3
2018-07-02T03:59:50.000Z,24.4
2018-07-02T04:01:50.000Z,24.4
2018-07-02T04:02:50.000Z,24.4
2018-07-02T04:04:50.000Z,24.4
2018-07-02T04:05:50.000Z,24.4
2018-07-02T04:07:50.000Z,24.4
2018-07-02T04:09:50.000Z,24.3
2018-07-02T04:11:50.000Z,24.3
2018-07-02T04:12:50.000Z,24.4
2018-07-02T04:14:50.000Z,24.5
2018-07-02T04:16:50.000Z,24.5
2018-07-02T04:18:50.000Z,24.5
2018-07-02T04:20:50.000Z,24.6
2018-07-02T04:21:50.000Z,24.7
2018-07-02T04:23:50.000Z,24.9
2018-07-02T04:24:50.000Z,25
2018-07-02T04:25:50.000Z,25.1
2018-07-02T04:27:50.000Z,25.3
2018-07-02T04:29:50.000Z,25.4
2018-07-02T04:31:35.000Z,25.4
2018-07-02T04:32:50.000Z,25.5
2018-07-02T04:34:50.000Z,25.5
2018-07-02T04:36:50.000Z,25.5
2018-07-02T04:38:50.000Z,25.5
2018-07-02T04:40:50.000Z,25.6
2018-07-02T04:42:50.000Z,25.7
2018-07-02T04:44:50.000Z,25.8
2018-07-02T04:46:50.000Z,25.8
2018-07-02T04:47:50.000Z,25.9
2018-07-02T04:48:50.000Z,26
2018-07-02T04:50:50.000Z,26.1
2018-07-02T04:52:50.000Z,26
2018-07-02T04:54:50.000Z,26
2018-07-02T04:56:50.000Z,26
2018-07-02T04:58:50.000Z,26
2018-07-02T04:59:50.000Z,26
2018-07-02T05:00:50.000Z,26
2018-07-02T05:02:50.000Z,26.1
2018-07-02T05:03:50.000Z,26.1
2018-07-02T05:05:50.000Z,26.1
2018-07-02T05:06:50.000Z,26.2
2018-07-02T05:08:50.000Z,26.2
2018-07-02T05:10:50.000Z,26.1
2018-07-02T05:11:50.000Z,26.1
2018-07-02T05:13:35.000Z,26.2
2018-07-02T05:14:50.000Z,26.2
2018-07-02T05:16:50.000Z,26.2
2018-07-02T05:17:50.000Z,26.2
2018-07-02T05:19:35.000Z,26.3
2018-07-02T05:20:50.000Z,26.4
2018-07-02T05:22:50.000Z,26.5
2018-07-02T05:23:50.000Z,26.6
2018-07-02T05:24:50.000Z,26.7
2018-07-02T05:25:50.000Z,26.8
2018-07-02T05:27:50.000Z,26.9
2018-07-02T05:28:50.000Z,27
2018-07-02T05:30:50.000Z,27.1
2018-07-02T05:31:50.000Z,27.1
2018-07-02T05:33:50.000Z,27.1
2018-07-02T05:34:50.000Z,27.1
2018-07-02T05:36:50.000Z,27.1
2018-07-02T05:38:50.000Z,27.2
2018-07-02T05:40:35.000Z,27.3
2018-07-02T05:41:50.000Z,27.3
2018-07-02T05:43:50.000Z,27.3
2018-07-02T05:45:50.000Z,27.2
2018-07-02T05:47:50.000Z,27.2
2018-07-02T05:49:50.000Z,27.2
2018-07-02T05:51:35.000Z,27.2
2018-07-02T05:52:50.000Z,27.3
2018-07-02T05:54:35.000Z,27.4
2018-07-02T05:55:50.000Z,27.4
2018-07-02T05:57:50.000Z,27.5
2018-07-02T05:59:50.000Z,27.6
2018-07-02T06:00:50.000Z,27.6
2018-07-02T06:01:50.000Z,27.7
2018-07-02T06:03:50.000Z,27.8
2018-07-02T06:04:50.000Z,27.9
2018-07-02T06:06:50.000Z,28
2018-07-02T06:08:50.000Z,27.9
2018-07-02T06:10:50.000Z,27.9
2018-07-02T06:11:50.000Z,27.9
2018-07-02T06:12:50.000Z,28
2018-07-02T06:14:50.000Z,28
2018-07-02T06:16:50.000Z,28.1
2018-07-02T06:17:50.000Z,28.1
2018-07-02T06:18:50.000Z,28.2
2018-07-02T06:19:50.000Z,28.1
2018-07-02T06:21:50.000Z,28.2
2018-07-02T06:23:50.000Z,28.1
2018-07-02T06:25:35.000Z,28.1
2018-07-02T06:26:50.000Z,28.1
2018-07-02T06:27:50.000Z,28.1
2018-07-02T06:29:35.000Z,28.1
2018-07-02T06:30:50.000Z,28
2018-07-02T06:32:50.000Z,28.1
2018-07-02T06:34:35.000Z,28.1
2018-07-02T06:35:50.000Z,28
2018-07-02T06:36:50.000Z,28
2018-07-02T06:37:50.000Z,28.1
2018-07-02T06:39:50.000Z,28.1
2018-07-02T06:40:50.000Z,28.1
2018-07-02T06:41:50.000Z,28.2
2018-07-02T06:43:50.000Z,28.2
2018-07-02T06:44:50.000Z,28.1
2018-07-02T06:46:50.000Z,28
2018-07-02T06:48:50.000Z,27.8
2018-07-02T06:50:35.000Z,27.7
2018-07-02T06:51:50.000Z,27.6
2018-07-02T06:52:50.000Z,27.7
2018-07-02T06:54:50.000Z,27.8
2018-07-02T06:56:50.000Z,27.9
2018-07-02T06:57:50.000Z,27.9
2018-07-02T06:58:50.000Z,28
2018-07-02T07:00:50.000Z,28.1
2018-07-02T07:02:50.000Z,28.1
2018-07-02T07:04:50.000Z,28.1
2018-07-02T07:05:50.000Z,28.2
2018-07-02T07:07:50.000Z,28.2
2018-07-02T07:09:50.000Z,28.2
2018-07-02T07:10:50.000Z,28.2
2018-07-02T07:12:50.000Z,28.3
2018-07-02T07:14:50.000Z,28.4
2018-07-02T07:15:50.000Z,28.5
2018-07-02T07:17:50.000Z,28.6
2018-07-02T07:18:50.000Z,28.6
2018-07-02T07:19:50.000Z,28.7
2018-07-02T07:21:50.000Z,28.8
2018-07-02T07:22:50.000Z,28.8
2018-07-02T07:23:50.000Z,28.9
2018-07-02T07:24:50.000Z,28.9
2018-07-02T07:25:50.000Z,29
2018-07-02T07:26:50.000Z,29
2018-07-02T07:27:50.000Z,29.1
2018-07-02T07:28:50.000Z,29.1
2018-07-02T07:30:50.000Z,29.1
2018-07-02T07:32:50.000Z,29.1
2018-07-02T07:34:50.000Z,29
2018-07-02T07:35:50.000Z,29.1
2018-07-02T07:37:50.000Z,29.1
2018-07-02T07:38:50.000Z,29.1
2018-07-02T07:40:50.000Z,29.2
2018-07-02T07:41:50.000Z,29.2
2018-07-02T07:42:50.000Z,29.3
2018-07-02T07:44:50.000Z,29.5
2018-07-02T07:46:50.000Z,29.4
2018-07-02T07:48:35.000Z,29.4
2018-07-02T07:49:50.000Z,29.4
2018-07-02T07:50:50.000Z,29.5
2018-07-02T07:51:50.000Z,29.5
2018-07-02T07:53:50.000Z,29.6
2018-07-02T07:55:50.000Z,29.6
2018-07-02T07:57:50.000Z,29.6
2018-07-02T07:59:50.000Z,29.6
2018-07-02T08:00:50.000Z,29.6
2018-07-02T08:02:50.000Z,29.7
2018-07-02T08:03:51.000Z,29.7
2018-07-02T08:04:51.000Z,29.8
2018-07-02T08:06:50.000Z,29.9
2018-07-02T08:07:51.000Z,29.9
2018-07-02T08:09:50.000Z,30
2018-07-02T08:10:50.000Z,30
2018-07-02T08:11:50.000Z,30
2018-07-02T08:13:50.000Z,30
2018-07-02T08:15:50.000Z,30.1
2018-07-02T08:17:50.000Z,30.1
2018-07-02T08:18:50.000Z,30.2
2018-07-02T08:20:50.000Z,30.2
2018-07-02T08:21:50.000Z,30.3
2018-07-02T08:23:51.000Z,30.3
2018-07-02T08:25:35.000Z,30.4
2018-07-02T08:26:50.000Z,30.4
2018-07-02T08:27:51.000Z,30.5
2018-07-02T08:29:35.000Z,30.5
2018-07-02T08:30:50.000Z,30.4
2018-07-02T08:32:50.000Z,30.3
2018-07-02T08:33:51.000Z,30.2
2018-07-02T08:34:51.000Z,30.3
2018-07-02T08:36:50.000Z,30.8
2018-07-02T08:37:51.000Z,31.3
2018-07-02T08:38:51.000Z,31.8
2018-07-02T08:40:50.000Z,32.2
2018-07-02T08:41:50.000Z,32.1
2018-07-02T08:43:50.000Z,32.3
2018-07-02T08:44:51.000Z,32.6
2018-07-02T08:46:51.000Z,32.8
2018-07-02T08:48:35.000Z,32.4
2018-07-02T08:49:51.000Z,32.1
2018-07-02T08:51:50.000Z,31.6
2018-07-02T08:56:51.000Z,30.3
2018-07-02T08:58:37.000Z,30.1
2018-07-02T08:59:37.000Z,30
2018-07-02T09:00:37.000Z,30.1
2018-07-02T09:02:37.000Z,30.2
2018-07-02T09:04:37.000Z,30.2
2018-07-02T09:05:37.000Z,30.2
2018-07-02T09:07:37.000Z,30.3
2018-07-02T09:08:37.000Z,30.3
2018-07-02T09:10:37.000Z,30.3
2018-07-02T09:11:37.000Z,30.3
2018-07-02T09:12:37.000Z,30.4
2018-07-02T09:13:37.000Z,30.4
2018-07-02T09:14:37.000Z,30.5
2018-07-02T09:16:37.000Z,30.5
2018-07-02T09:18:37.000Z,30.4
2018-07-02T09:20:37.000Z,30.2
2018-07-02T09:21:37.000Z,30.2
2018-07-02T09:23:37.000Z,30.2
2018-07-02T09:25:21.000Z,30.2
2018-07-02T09:26:37.000Z,30.1
2018-07-02T09:27:37.000Z,30.1
2018-07-02T09:29:37.000Z,30.2
2018-07-02T09:30:37.000Z,30.2
2018-07-02T09:31:37.000Z,30.3
2018-07-02T09:33:37.000Z,30.3
2018-07-02T09:35:37.000Z,30.1
2018-07-02T09:36:37.000Z,30.1
2018-07-02T09:38:37.000Z,30.1
2018-07-02T09:39:37.000Z,30.2
2018-07-02T09:41:37.000Z,30.2
2018-07-02T09:43:37.000Z,30.2
2018-07-02T09:45:37.000Z,30.2
2018-07-02T09:47:37.000Z,30.5
2018-07-02T09:48:37.000Z,30.6
2018-07-02T09:49:37.000Z,30.8
2018-07-02T09:51:37.000Z,31
2018-07-02T09:52:37.000Z,31.1
2018-07-02T09:54:21.000Z,31.3
2018-07-02T09:55:37.000Z,31.4
2018-07-02T09:56:37.000Z,31.5
2018-07-02T09:58:37.000Z,31.5
2018-07-02T10:00:37.000Z,31.4
2018-07-02T10:01:37.000Z,31.4
2018-07-02T10:03:37.000Z,31.3
2018-07-02T10:04:37.000Z,31.3
2018-07-02T10:05:37.000Z,31.3
2018-07-02T10:07:36.000Z,31.3
2018-07-02T10:09:36.000Z,31.3
2018-07-02T10:10:36.000Z,31.3
2018-07-02T10:12:36.000Z,31.3
2018-07-02T10:14:36.000Z,31.2
2018-07-02T10:16:36.000Z,31.1
2018-07-02T10:18:36.000Z,31
2018-07-02T10:19:36.000Z,31.1
2018-07-02T10:21:36.000Z,31.1
2018-07-02T10:23:36.000Z,31.1
2018-07-02T10:24:36.000Z,31.1
2018-07-02T10:28:22.000Z,30.8
2018-07-02T10:29:22.000Z,30.8
2018-07-02T10:30:22.000Z,30.9
2018-07-02T10:31:22.000Z,31
2018-07-02T10:33:22.000Z,31.1
2018-07-02T10:34:22.000Z,31.1
2018-07-02T10:36:22.000Z,31.2
2018-07-02T10:37:22.000Z,31.2
2018-07-02T10:38:22.000Z,31.3
2018-07-02T10:39:22.000Z,31.3
2018-07-02T10:40:22.000Z,31.4
2018-07-02T10:42:22.000Z,31.4
2018-07-02T10:43:22.000Z,31.4
2018-07-02T10:45:22.000Z,31.5
2018-07-02T10:46:22.000Z,31.5
2018-07-02T10:48:22.000Z,31.5
2018-07-02T10:49:22.000Z,31.5
2018-07-02T10:51:22.000Z,31.5
2018-07-02T10:53:22.000Z,31.4
2018-07-02T10:55:22.000Z,31.3
2018-07-02T10:57:22.000Z,31.2
2018-07-02T10:59:22.000Z,31.1
2018-07-02T11:01:22.000Z,31.2
2018-07-02T11:03:22.000Z,31.2
2018-07-02T11:04:22.000Z,31.2
2018-07-02T11:06:22.000Z,31.3
2018-07-02T11:08:22.000Z,31.3
2018-07-02T11:09:22.000Z,31.3
2018-07-02T11:10:22.000Z,31.4
2018-07-02T11:12:22.000Z,31.5
2018-07-02T11:14:22.000Z,31.5
2018-07-02T11:16:22.000Z,31.4
2018-07-02T11:17:22.000Z,31.4
2018-07-02T11:19:22.000Z,31.5
2018-07-02T11:21:22.000Z,31.4
2018-07-02T11:23:22.000Z,31.4
2018-07-02T11:25:22.000Z,31.3
2018-07-02T11:27:22.000Z,31.3
2018-07-02T11:29:22.000Z,31.2
2018-07-02T11:31:22.000Z,31.4
2018-07-02T11:32:22.000Z,31.5
2018-07-02T11:34:22.000Z,31.7
2018-07-02T11:36:22.000Z,31.9
2018-07-02T11:37:22.000Z,32
2018-07-02T11:39:07.000Z,32.2
2018-07-02T11:40:22.000Z,32.2
2018-07-02T11:42:22.000Z,32
2018-07-02T11:43:22.000Z,32
2018-07-02T11:45:22.000Z,31.8
2018-07-02T11:47:22.000Z,31.6
2018-07-02T11:48:22.000Z,31.6
2018-07-02T11:50:22.000Z,31.5
2018-07-02T11:51:22.000Z,31.5
2018-07-02T11:53:22.000Z,31.4
2018-07-02T11:55:22.000Z,31.4
2018-07-02T11:57:22.000Z,31.4
2018-07-02T11:58:22.000Z,31.5
2018-07-02T11:59:22.000Z,31.6
2018-07-02T12:00:22.000Z,31.7
2018-07-02T12:01:22.000Z,31.8
2018-07-02T12:03:22.000Z,32
2018-07-02T12:05:22.000Z,32
2018-07-02T12:06:22.000Z,32
2018-07-02T12:08:22.000Z,32.1
2018-07-02T12:09:22.000Z,32
2018-07-02T12:11:22.000Z,32
2018-07-02T12:12:22.000Z,32
2018-07-02T12:13:22.000Z,32
2018-07-02T12:15:22.000Z,32
2018-07-02T12:16:22.000Z,32
2018-07-02T12:18:22.000Z,31.9
2018-07-02T12:20:07.000Z,31.8
2018-07-02T12:21:22.000Z,31.7
2018-07-02T12:23:07.000Z,31.6
2018-07-02T12:24:22.000Z,31.5
2018-07-02T12:25:22.000Z,31.5
2018-07-02T12:26:22.000Z,31.6
2018-07-02T12:28:22.000Z,31.7
2018-07-02T12:29:22.000Z,31.7
2018-07-02T12:31:22.000Z,31.7
2018-07-02T12:33:22.000Z,31.7
2018-07-02T12:35:22.000Z,31.6
2018-07-02T12:36:22.000Z,31.5
2018-07-02T12:38:22.000Z,31.5
2018-07-02T12:40:22.000Z,31.5
2018-07-02T12:41:22.000Z,31.5
2018-07-02T12:43:22.000Z,31.5
2018-07-02T12:45:22.000Z,31.4
2018-07-02T12:47:07.000Z,31.4
2018-07-02T12:48:22.000Z,31.4
2018-07-02T12:49:22.000Z,31.4
2018-07-02T12:50:22.000Z,31.5
2018-07-02T12:52:22.000Z,31.5
2018-07-02T12:54:22.000Z,31.5
2018-07-02T12:56:22.000Z,31.5
2018-07-02T12:58:22.000Z,31.4
2018-07-02T13:00:22.000Z,31.3
2018-07-02T13:01:22.000Z,31.2
2018-07-02T13:03:22.000Z,31.3
2018-07-02T13:05:22.000Z,31.2
2018-07-02T13:06:22.000Z,31.2
2018-07-02T13:08:22.000Z,31.3
2018-07-02T13:09:22.000Z,31.4
2018-07-02T13:11:22.000Z,31.4
2018-07-02T13:13:22.000Z,31.3
2018-07-02T13:15:22.000Z,31.3
2018-07-02T13:16:22.000Z,31.3
2018-07-02T13:18:22.000Z,31.3
2018-07-02T13:20:22.000Z,31.3
2018-07-02T13:21:22.000Z,31.3
2018-07-02T13:22:22.000Z,31.4
2018-07-02T13:24:22.000Z,31.6
2018-07-02T13:26:22.000Z,31.6
2018-07-02T13:27:22.000Z,31.7
2018-07-02T13:28:22.000Z,31.7
2018-07-02T13:30:22.000Z,31.7
2018-07-02T13:32:22.000Z,31.7
2018-07-02T13:33:22.000Z,31.7
2018-07-02T13:35:22.000Z,31.6
2018-07-02T13:37:22.000Z,31.6
2018-07-02T13:39:22.000Z,31.5
2018-07-02T13:41:22.000Z,31.6
2018-07-02T13:43:22.000Z,31.6
2018-07-02T13:45:22.000Z,31.7
2018-07-02T13:47:22.000Z,31.7
2018-07-02T13:49:07.000Z,31.7
2018-07-02T13:50:22.000Z,31.7
2018-07-02T13:52:22.000Z,31.7
2018-07-02T13:53:22.000Z,31.8
2018-07-02T13:54:22.000Z,31.8
2018-07-02T13:56:07.000Z,31.9
2018-07-02T13:57:22.000Z,31.9
2018-07-02T13:59:22.000Z,31.9
2018-07-02T14:00:22.000Z,31.9
2018-07-02T14:01:22.000Z,31.9
2018-07-02T14:02:22.000Z,31.9
2018-07-02T14:04:22.000Z,32
2018-07-02T14:06:22.000Z,32
2018-07-02T14:08:22.000Z,32
2018-07-02T14:10:22.000Z,31.9
2018-07-02T14:11:22.000Z,31.8
2018-07-02T14:13:22.000Z,31.9
2018-07-02T14:15:22.000Z,31.9
2018-07-02T14:16:22.000Z,31.9
2018-07-02T14:18:22.000Z,31.9
2018-07-02T14:20:22.000Z,31.9
2018-07-02T14:21:22.000Z,31.9
2018-07-02T14:22:22.000Z,32
2018-07-02T14:23:22.000Z,32
2018-07-02T14:25:07.000Z,32.1
2018-07-02T14:26:22.000Z,32
2018-07-02T14:27:22.000Z,32
2018-07-02T14:29:22.000Z,32.1
2018-07-02T14:31:22.000Z,31.9
2018-07-02T14:32:22.000Z,31.9
2018-07-02T14:34:07.000Z,31.9
2018-07-02T14:35:22.000Z,31.9
2018-07-02T14:37:22.000Z,31.9
2018-07-02T14:39:22.000Z,31.9
2018-07-02T14:41:22.000Z,31.8
2018-07-02T14:43:22.000Z,31.7
2018-07-02T14:45:22.000Z,31.7
2018-07-02T14:46:22.000Z,31.6
2018-07-02T14:48:22.000Z,31.6
2018-07-02T14:50:22.000Z,31.7
2018-07-02T14:52:07.000Z,31.7
2018-07-02T14:53:22.000Z,31.7
2018-07-02T14:55:22.000Z,31.7
2018-07-02T14:57:07.000Z,31.8
2018-07-02T14:58:22.000Z,31.7
2018-07-02T14:59:22.000Z,31.8
2018-07-02T15:01:22.000Z,31.8
2018-07-02T15:03:22.000Z,31.7
2018-07-02T15:05:22.000Z,31.7
2018-07-02T15:07:22.000Z,31.7
2018-07-02T15:08:22.000Z,31.7
2018-07-02T15:10:22.000Z,31.7
2018-07-02T15:11:22.000Z,31.8
2018-07-02T15:12:22.000Z,31.8
2018-07-02T15:14:22.000Z,31.8
2018-07-02T15:16:22.000Z,31.8
2018-07-02T15:18:07.000Z,31.8
2018-07-02T15:19:22.000Z,31.7
2018-07-02T15:20:22.000Z,31.8
2018-07-02T15:21:22.000Z,31.8
2018-07-02T15:23:22.000Z,31.9
2018-07-02T15:24:22.000Z,31.9
2018-07-02T15:26:22.000Z,31.9
2018-07-02T15:28:22.000Z,31.9
2018-07-02T15:29:22.000Z,31.9
2018-07-02T15:31:07.000Z,31.9
2018-07-02T15:32:22.000Z,31.9
2018-07-02T15:33:22.000Z,31.9
2018-07-02T15:35:22.000Z,31.9
2018-07-02T15:37:22.000Z,31.9
2018-07-02T15:38:22.000Z,31.8
2018-07-02T15:40:22.000Z,31.8
2018-07-02T15:42:22.000Z,31.8
2018-07-02T15:43:22.000Z,31.8
2018-07-02T15:45:22.000Z,31.9
2018-07-02T15:46:22.000Z,31.9
2018-07-02T15:47:22.000Z,31.9
2018-07-02T15:49:22.000Z,31.8
2018-07-02T15:50:22.000Z,31.9
2018-07-02T15:52:22.000Z,31.9
2018-07-02T15:53:22.000Z,31.9
2018-07-02T15:55:22.000Z,31.8
2018-07-02T15:57:22.000Z,31.7
2018-07-02T15:59:22.000Z,31.6
2018-07-02T16:00:22.000Z,31.6
2018-07-02T16:02:22.000Z,31.6
2018-07-02T16:04:07.000Z,31.6
2018-07-02T16:05:22.000Z,31.6
2018-07-02T16:06:22.000Z,31.6
2018-07-02T16:08:22.000Z,31.6
2018-07-02T16:09:22.000Z,31.7
2018-07-02T16:11:22.000Z,31.7
2018-07-02T16:13:22.000Z,31.7
2018-07-02T16:14:22.000Z,31.7
2018-07-02T16:16:22.000Z,31.6
2018-07-02T16:18:22.000Z,31.6
2018-07-02T16:19:22.000Z,31.6
2018-07-02T16:21:22.000Z,31.6
2018-07-02T16:23:22.000Z,31.7
2018-07-02T16:24:22.000Z,31.7
2018-07-02T16:25:22.000Z,31.7
2018-07-02T16:27:22.000Z,31.8
2018-07-02T16:29:22.000Z,31.7
2018-07-02T16:31:22.000Z,31.7
2018-07-02T16:32:22.000Z,31.7
2018-07-02T16:33:22.000Z,31.7
2018-07-02T16:35:22.000Z,31.7
2018-07-02T16:36:22.000Z,31.7
2018-07-02T16:37:22.000Z,31.8
2018-07-02T16:38:22.000Z,31.9
2018-07-02T16:40:22.000Z,31.9
2018-07-02T16:42:22.000Z,31.9
2018-07-02T16:44:22.000Z,31.8
2018-07-02T16:46:22.000Z,31.8
2018-07-02T16:47:22.000Z,31.8
2018-07-02T16:49:22.000Z,31.7
2018-07-02T16:51:07.000Z,31.7
2018-07-02T16:52:22.000Z,31.7
2018-07-02T16:53:22.000Z,31.7
2018-07-02T16:55:07.000Z,31.8
2018-07-02T16:56:22.000Z,31.8
2018-07-02T16:57:22.000Z,31.8
2018-07-02T16:59:22.000Z,31.8
2018-07-02T17:01:22.000Z,31.8
2018-07-02T17:03:22.000Z,31.8
2018-07-02T17:05:22.000Z,31.8
2018-07-02T17:06:22.000Z,31.8
2018-07-02T17:07:22.000Z,31.8
2018-07-02T17:09:07.000Z,31.9
2018-07-02T17:10:22.000Z,31.9
2018-07-02T17:12:22.000Z,31.9
2018-07-02T17:14:22.000Z,31.8
2018-07-02T17:16:22.000Z,31.8
2018-07-02T17:18:22.000Z,31.7
2018-07-02T17:19:22.000Z,31.7
2018-07-02T17:21:07.000Z,31.8
2018-07-02T17:22:22.000Z,31.8
2018-07-02T17:24:22.000Z,31.8
2018-07-02T17:25:22.000Z,31.8
2018-07-02T17:27:22.000Z,31.8
2018-07-02T17:28:22.000Z,31.8
2018-07-02T17:30:22.000Z,31.8
2018-07-02T17:32:22.000Z,31.8
2018-07-02T17:34:22.000Z,31.8
2018-07-02T17:35:22.000Z,31.8
2018-07-02T17:37:22.000Z,31.8
2018-07-02T17:38:22.000Z,31.8
2018-07-02T17:40:07.000Z,31.8
2018-07-02T17:41:22.000Z,31.8
2018-07-02T17:42:22.000Z,31.8
2018-07-02T17:43:22.000Z,31.9
2018-07-02T17:45:22.000Z,31.9
2018-07-02T17:47:22.000Z,31.9
2018-07-02T17:48:22.000Z,31.9
2018-07-02T17:49:22.000Z,31.9
2018-07-02T17:51:22.000Z,32
2018-07-02T17:52:22.000Z,32
2018-07-02T17:54:22.000Z,32
2018-07-02T17:56:22.000Z,31.9
2018-07-02T17:57:22.000Z,31.9
2018-07-02T17:59:22.000Z,31.8
2018-07-02T18:00:22.000Z,31.8
2018-07-02T18:02:07.000Z,31.8
2018-07-02T18:03:22.000Z,31.8
2018-07-02T18:04:22.000Z,31.8
2018-07-02T18:05:22.000Z,31.9
2018-07-02T18:06:22.000Z,32
2018-07-02T18:08:22.000Z,32
2018-07-02T18:10:22.000Z,32
2018-07-02T18:11:22.000Z,32
2018-07-02T18:13:22.000Z,31.9
2018-07-02T18:14:22.000Z,31.9
2018-07-02T18:15:22.000Z,31.9
2018-07-02T18:16:22.000Z,31.9
2018-07-02T18:18:22.000Z,32
2018-07-02T18:19:22.000Z,32
2018-07-02T18:20:22.000Z,32
2018-07-02T18:22:22.000Z,32
2018-07-02T18:24:07.000Z,32
2018-07-02T18:25:22.000Z,31.9
2018-07-02T18:26:22.000Z,31.9
2018-07-02T18:27:22.000Z,32
2018-07-02T18:29:22.000Z,32
2018-07-02T18:31:22.000Z,31.9
2018-07-02T18:33:22.000Z,31.8
2018-07-02T18:34:22.000Z,31.8
2018-07-02T18:35:22.000Z,31.8
2018-07-02T18:37:23.000Z,31.8
2018-07-02T18:38:23.000Z,31.9
2018-07-02T18:39:23.000Z,31.9
2018-07-02T18:40:23.000Z,31.9
2018-07-02T18:41:23.000Z,32
2018-07-02T18:43:23.000Z,32
2018-07-02T18:44:23.000Z,32
2018-07-02T18:45:23.000Z,32
2018-07-02T18:47:23.000Z,32
2018-07-02T18:48:23.000Z,32
2018-07-02T18:49:23.000Z,32.1
2018-07-02T18:51:23.000Z,32
2018-07-02T18:52:23.000Z,32
2018-07-02T18:53:23.000Z,32
2018-07-02T18:54:23.000Z,32
2018-07-02T18:55:23.000Z,32
2018-07-02T18:56:23.000Z,32
2018-07-02T18:58:23.000Z,32
2018-07-02T18:59:23.000Z,32
2018-07-02T19:00:23.000Z,32
2018-07-02T19:02:23.000Z,31.9
2018-07-02T19:04:23.000Z,31.8
2018-07-02T19:06:23.000Z,31.8
2018-07-02T19:07:23.000Z,31.8
2018-07-02T19:09:07.000Z,31.8
2018-07-02T19:10:23.000Z,31.7
2018-07-02T19:12:23.000Z,31.6
2018-07-02T19:14:23.000Z,31.6
2018-07-02T19:16:23.000Z,31.5
2018-07-02T19:17:23.000Z,31.5
2018-07-02T19:18:23.000Z,31.5
2018-07-02T19:20:23.000Z,31.5
2018-07-02T19:22:23.000Z,31.5
2018-07-02T19:24:07.000Z,31.5
2018-07-02T19:25:23.000Z,31.5
2018-07-02T19:27:23.000Z,31.5
2018-07-02T19:28:23.000Z,31.5
2018-07-02T19:30:23.000Z,31.6
2018-07-02T19:32:23.000Z,31.6
2018-07-02T19:33:23.000Z,31.6
2018-07-02T19:34:23.000Z,31.6
2018-07-02T19:35:23.000Z,31.7
2018-07-02T19:37:23.000Z,31.7
2018-07-02T19:39:23.000Z,31.6
2018-07-02T19:41:23.000Z,31.5
2018-07-02T19:43:23.000Z,31.5
2018-07-02T19:44:23.000Z,31.5
2018-07-02T19:46:23.000Z,31.5
2018-07-02T19:48:23.000Z,31.4
2018-07-02T19:50:23.000Z,31.2
2018-07-02T19:51:23.000Z,31.2
2018-07-02T19:53:23.000Z,31.2
2018-07-02T19:54:23.000Z,31.2
2018-07-02T19:56:23.000Z,31.3
2018-07-02T19:57:23.000Z,31.3
2018-07-02T19:59:23.000Z,31.4
2018-07-02T20:00:23.000Z,31.4
2018-07-02T20:02:23.000Z,31.3
2018-07-02T20:03:23.000Z,31.3
2018-07-02T20:05:23.000Z,31.4
2018-07-02T20:06:23.000Z,31.4
2018-07-02T20:08:23.000Z,31.4
2018-07-02T20:10:23.000Z,31.3
2018-07-02T20:12:23.000Z,31.2
2018-07-02T20:14:23.000Z,31.2
2018-07-02T20:15:23.000Z,31.2
2018-07-02T20:17:23.000Z,31.3
2018-07-02T20:19:23.000Z,31.3
2018-07-02T20:20:23.000Z,31.3
2018-07-02T20:22:23.000Z,31.4
2018-07-02T20:24:07.000Z,31.4
2018-07-02T20:25:23.000Z,31.4
2018-07-02T20:27:23.000Z,31.3
2018-07-02T20:29:23.000Z,31.3
2018-07-02T20:31:23.000Z,31.2
2018-07-02T20:32:23.000Z,31.2
2018-07-02T20:33:23.000Z,31.3
2018-07-02T20:34:23.000Z,31.4
2018-07-02T20:36:23.000Z,31.4
2018-07-02T20:38:07.000Z,31.4
2018-07-02T20:39:23.000Z,31.3
2018-07-02T20:40:23.000Z,31.4
2018-07-02T20:42:23.000Z,31.4
2018-07-02T20:44:22.000Z,31.3
2018-07-02T20:45:22.000Z,31.3
2018-07-02T20:46:22.000Z,31.4